AirNav   Pilot Hours Calculator
 
 1047 users online  

24MD Marriott Parking Garage Rooftop Heliport
Baltimore, Maryland, USA

GOING TO BALTIMORE?


FAA INFORMATION EFFECTIVE 16 JUNE 2022

Location

FAA Identifier: 24MD
Lat/Long: 39-16-59.7000N 076-36-07.0800W
39-16.995000N 076-36.118000W
39.2832500,-76.6019667
(estimated)
Elevation: 100 ft. / 30 m (estimated)
Variation: 11W (2000)
Time zone: UTC -4 (UTC -5 during Standard Time)
Zip code: 21202

Heliport Operations

Heliport use: Private use. Permission required prior to landing
Activation date: 08/2002
Control tower: no
ARTCC: WASHINGTON CENTER
FSS: LEESBURG FLIGHT SERVICE STATION
Attendance: UNATNDD
Wind indicator: yes
Segmented circle: no

Heliport Communications

WX ASOS at BWI (7 nm SW): PHONE 410-691-1278
WX AWOS-3PT at MTN (9 nm E): 124.925 (410-682-8848)
WX AWOS-3 at FME (14 nm SW): 123.925

Heliport Services

Runway Information

Helipad H1

Dimensions: 112 x 62 ft. / 34 x 19 m
Surface: asphalt
Operational restrictions: ROOFTOP
Traffic pattern: leftleft

Heliport Ownership and Management from official FAA records

Ownership: Privately-owned
Owner: MARRIOTT WATERFRONT HTL PRKG GARAGE
650 S. EXETER ST., STE. 200, ATTN: ROBERT THOMAS
BALTIMORE, MD 21202
Phone 410-752-9331
Manager: JOEL S. SCHINDLER
650 S. EXETER ST., STE. 200
BALTIMORE, MD 21202
Phone 410-779-4700
EXT 3106

Additional Remarks

A52-H1 240 FT BLDG 85 FT WEST OF HELIPAD.
FOR CD CTC POTOMAC APCH AT 866-429-5882.

Instrument Procedures

There are no published instrument procedures at 24MD.

Some nearby airports with instrument procedures:

KBWI - Baltimore/Washington International Thurgood Marshall Airport (7 nm SW)
KMTN - Martin State Airport (9 nm E)
KFME - Tipton Airport (14 nm SW)
KEDG - Weide Army Heliport (Aberdeen Proving Ground) (16 nm NE)
KANP - Lee Airport (20 nm S)
 
Loc | Ops | Rwys | IFR | FBO | Links
Com | Nav | Svcs | Stats | Notes
Area around 24MD (Marriott Parking Garage Rooftop Heliport)
 
Road maps at: MapQuest Bing Google
 
Aerial photo
No photo
 
Sectional chart

 
Airport distance calculator
Flying to Marriott Parking Garage Rooftop Heliport? Find the distance to fly.

From to 24MD

Sunrise and sunset
Times for 02-Jul-2022
 Local
(UTC-4)
 Zulu
(UTC)
Morning civil twilight05:1309:13
Sunrise05:4509:45
Sunset20:3600:36
Evening civil twilight21:0801:08

Current date and time
Zulu (UTC)  02-Jul-2022 15:13:38
Local (UTC-4)  02-Jul-2022 11:13:38
 
METAR
KBWI 
8nm SW 
021454Z VRB05KT 10SM FEW020 FEW140 BKN220 BKN250 32/22 A2995 RMK AO2 SLP140 T03170217 55001
KMTN 
9nm E 
021354Z 00000KT 10SM CLR 27/22 A2996
KFME 
14nm SW 
021439Z AUTO 26005KT 10SM CLR 28/23 A2999 RMK AO1
KNAK 
19nm S 
021454Z AUTO 21006KT 10SM CLR 28/22 A2996 RMK AO2 SLP148 T02830222 55000
TAF
KBWI 
8nm SW 
021125Z 0212/0318 23008G16KT P6SM VCSH FEW050 BKN130 FM021900 21008G16KT P6SM -SHRA VCTS BKN050CB BKN130 FM030000 VRB04KT 6SM -SHRA BKN050 BKN130 FM030300 VRB03KT 5SM BR BKN050 BKN130 FM030900 34005KT P6SM SCT050 BKN130
KMTN 
9nm E 
021125Z 0212/0312 16005KT P6SM BKN130 FM021300 21008G16KT P6SM VCSH FEW050 SCT200 FM021900 17008G16KT P6SM -SHRA VCTS BKN050CB BKN130 FM030000 VRB04KT 6SM -SHRA BKN050 BKN130 FM030300 VRB03KT 5SM BR BKN050 BKN200 FM030900 34005KT P6SM SCT050 BKN130
NOTAMs
Click for the latest NOTAMs
NOTAMs are issued by the DoD/FAA and will open in a separate window not controlled by AirNav.

 

 
 

Would you like to see your business listed on this page?

 If your business provides an interesting product or service to pilots, flight crews, aircraft, or users of the Marriott Parking Garage Rooftop Heliport, you should consider listing it here.  To start the listing process, click on the button below
 
Add a business
 

Other Pages about Marriott Parking Garage Rooftop Heliport

Update a link
 
Copyright © AirNav, LLC. All rights reserved. Privacy Policy  Contact